createdAt,value
2018-04-22T00:01:01.581Z,24.26
2018-04-22T00:03:32.084Z,24.21
2018-04-22T00:06:47.718Z,24.17
2018-04-22T00:09:20.738Z,24.03
2018-04-22T00:11:52.614Z,23.93
2018-04-22T00:14:23.493Z,24.01
2018-04-22T00:16:55.304Z,23.88
2018-04-22T00:19:29.565Z,23.88
2018-04-22T00:22:36.444Z,23.96
2018-04-22T00:25:08.526Z,23.94
2018-04-22T00:27:44.449Z,23.96
2018-04-22T00:30:16.277Z,23.85
2018-04-22T00:32:48.738Z,23.83
2018-04-22T00:35:21.911Z,24.01
2018-04-22T00:37:56.331Z,24.11
2018-04-22T00:40:28.281Z,24.07
2018-04-22T00:43:00.254Z,24.05
2018-04-22T00:45:32.275Z,23.98
2018-04-22T00:48:04.264Z,23.99
2018-04-22T00:50:36.484Z,24.00
2018-04-22T00:53:08.483Z,23.99
2018-04-22T00:55:40.529Z,24.15
2018-04-22T00:58:12.489Z,24.29
2018-04-22T01:00:45.972Z,24.31
2018-04-22T01:03:18.492Z,24.24
2018-04-22T01:05:50.491Z,24.18
2018-04-22T01:08:22.308Z,24.24
2018-04-22T01:10:56.348Z,24.30
2018-04-22T01:20:02.673Z,24.44
2018-04-22T01:22:36.578Z,24.50
2018-04-22T01:25:07.078Z,24.51
2018-04-22T01:27:40.409Z,24.52
2018-04-22T01:30:13.607Z,24.56
2018-04-22T01:38:17.269Z,24.76
2018-04-22T01:42:41.606Z,24.90
2018-04-22T01:45:13.526Z,24.98
2018-04-22T01:47:45.292Z,25.01
2018-04-22T01:50:17.776Z,25.00
2018-04-22T01:52:51.501Z,24.95
2018-04-22T01:55:24.747Z,24.96
2018-04-22T01:57:56.603Z,25.07
2018-04-22T02:00:27.489Z,25.14
2018-04-22T02:02:59.281Z,25.25
2018-04-22T02:05:31.238Z,25.49
2018-04-22T02:08:03.257Z,25.60
2018-04-22T02:10:35.217Z,25.63
2018-04-22T02:13:34.705Z,25.88
2018-04-22T02:16:06.598Z,25.85
2018-04-22T02:18:39.692Z,25.88
2018-04-22T02:21:11.902Z,25.86
2018-04-22T02:23:44.682Z,25.94
2018-04-22T02:26:16.572Z,26.08
2018-04-22T02:28:47.085Z,26.25
2018-04-22T02:31:18.923Z,26.38
2018-04-22T02:33:50.584Z,26.53
2018-04-22T02:36:21.382Z,26.62
2018-04-22T02:38:53.258Z,26.76
2018-04-22T02:43:10.584Z,26.71
2018-04-22T02:45:41.340Z,26.78
2018-04-22T02:48:13.262Z,26.89
2018-04-22T02:50:45.261Z,27.10
2018-04-22T02:53:17.432Z,27.11
2018-04-22T02:55:49.280Z,27.24
2018-04-22T02:58:21.238Z,27.29
2018-04-22T03:00:53.424Z,27.48
2018-04-22T03:03:25.507Z,27.48
2018-04-22T03:05:57.280Z,27.54
2018-04-22T03:08:29.285Z,27.62
2018-04-22T03:11:02.769Z,27.76
2018-04-22T03:13:34.574Z,27.95
2018-04-22T03:16:06.692Z,28.05
2018-04-22T03:18:40.902Z,28.09
2018-04-22T03:21:14.711Z,28.22
2018-04-22T03:23:46.657Z,28.22
2018-04-22T03:26:20.428Z,28.36
2018-04-22T03:28:52.314Z,28.46
2018-04-22T03:31:27.477Z,28.58
2018-04-22T03:34:00.469Z,28.66
2018-04-22T03:36:35.518Z,28.93
2018-04-22T03:39:08.236Z,28.96
2018-04-22T03:44:20.482Z,29.09
2018-04-22T03:46:52.291Z,29.21
2018-04-22T03:49:25.501Z,29.25
2018-04-22T03:51:58.845Z,29.28
2018-04-22T03:54:30.614Z,29.31
2018-04-22T03:57:01.506Z,29.54
2018-04-22T03:59:33.494Z,29.67
2018-04-22T04:02:05.492Z,29.68
2018-04-22T04:04:37.493Z,29.72
2018-04-22T04:14:31.763Z,30.35
2018-04-22T04:17:03.596Z,30.40
2018-04-22T04:19:40.122Z,30.45
2018-04-22T04:22:23.495Z,30.54
2018-04-22T04:25:07.498Z,30.65
2018-04-22T04:27:51.498Z,30.72
2018-04-22T04:30:23.939Z,30.78
2018-04-22T04:32:55.589Z,30.78
2018-04-22T04:35:26.502Z,30.88
2018-04-22T04:37:58.506Z,31.01
2018-04-22T04:40:32.524Z,31.10
2018-04-22T04:43:05.292Z,31.27
2018-04-22T04:45:37.512Z,31.33
2018-04-22T04:48:09.285Z,31.37
2018-04-22T04:50:42.522Z,31.42
2018-04-22T04:53:15.509Z,31.53
2018-04-22T04:55:47.504Z,31.54
2018-04-22T04:58:19.284Z,31.66
2018-04-22T05:00:52.549Z,31.65
2018-04-22T05:03:24.514Z,31.77
2018-04-22T05:05:56.509Z,31.93
2018-04-22T05:08:28.511Z,31.98
2018-04-22T05:11:45.643Z,32.18
2018-04-22T05:14:17.557Z,32.23
2018-04-22T05:16:49.422Z,32.30
2018-04-22T05:19:21.264Z,32.45
2018-04-22T05:23:12.255Z,32.50
2018-04-22T05:25:45.549Z,32.69
2018-04-22T05:28:18.621Z,32.85
2018-04-22T05:30:51.725Z,32.84
2018-04-22T05:33:34.792Z,32.89
2018-04-22T05:37:28.584Z,33.08
2018-04-22T05:39:59.392Z,33.26
2018-04-22T05:42:31.271Z,33.33
2018-04-22T05:45:03.247Z,33.21
2018-04-22T05:48:48.528Z,33.40
2018-04-22T05:51:22.556Z,33.58
2018-04-22T05:53:54.721Z,33.62
2018-04-22T05:56:28.527Z,33.66
2018-04-22T05:59:00.511Z,33.66
2018-04-22T06:01:33.918Z,33.73
2018-04-22T06:04:06.242Z,33.75
2018-04-22T06:06:39.734Z,33.86
2018-04-22T06:09:12.721Z,33.89
2018-04-22T06:11:44.593Z,33.99
2018-04-22T06:14:16.565Z,34.19
2018-04-22T06:16:49.779Z,34.27
2018-04-22T06:19:21.575Z,34.32
2018-04-22T06:23:17.475Z,34.48
2018-04-22T06:25:49.245Z,34.48
2018-04-22T06:28:21.269Z,34.55
2018-04-22T06:30:56.617Z,34.54
2018-04-22T06:33:30.018Z,34.61
2018-04-22T06:36:02.666Z,34.66
2018-04-22T06:38:37.549Z,34.82
2018-04-22T06:41:09.283Z,34.89
2018-04-22T06:43:41.285Z,34.94
2018-04-22T06:46:14.663Z,34.96
2018-04-22T06:48:45.483Z,35.02
2018-04-22T06:51:17.279Z,35.18
2018-04-22T06:53:49.567Z,35.20
2018-04-22T06:56:20.093Z,35.32
2018-04-22T06:58:52.211Z,35.37
2018-04-22T07:01:25.746Z,35.43
2018-04-22T07:03:57.932Z,35.47
2018-04-22T07:06:29.574Z,35.41
2018-04-22T07:11:26.268Z,35.50
2018-04-22T07:13:58.249Z,35.67
2018-04-22T07:16:30.262Z,35.79
2018-04-22T07:19:03.490Z,35.75
2018-04-22T07:22:32.699Z,35.88
2018-04-22T07:25:05.812Z,35.93
2018-04-22T07:27:38.509Z,35.94
2018-04-22T07:30:11.263Z,36.03
2018-04-22T07:32:45.507Z,36.10
2018-04-22T07:38:58.244Z,36.30
2018-04-22T07:45:15.633Z,36.49
2018-04-22T07:47:48.633Z,36.53
2018-04-22T07:50:22.534Z,36.61
2018-04-22T07:52:53.386Z,36.63
2018-04-22T07:55:25.360Z,36.73
2018-04-22T07:57:58.594Z,36.71
2018-04-22T08:00:30.963Z,36.79
2018-04-22T08:03:03.504Z,36.75
2018-04-22T08:05:36.507Z,36.72
2018-04-22T08:08:08.500Z,36.75
2018-04-22T08:10:39.091Z,37.01
2018-04-22T08:13:11.236Z,36.97
2018-04-22T08:15:43.860Z,37.04
2018-04-22T08:18:15.575Z,37.20
2018-04-22T08:20:48.926Z,37.25
2018-04-22T08:24:15.483Z,37.31
2018-04-22T08:26:48.054Z,37.37
2018-04-22T08:29:20.751Z,37.38
2018-04-22T08:31:52.571Z,37.42
2018-04-22T08:34:24.233Z,37.48
2018-04-22T08:36:58.222Z,37.47
2018-04-22T08:39:31.598Z,37.61
2018-04-22T08:42:03.499Z,37.65
2018-04-22T08:44:36.710Z,37.64
2018-04-22T08:49:58.050Z,37.98
2018-04-22T08:52:35.046Z,37.90
2018-04-22T08:55:07.255Z,37.88
2018-04-22T08:57:39.233Z,37.88
2018-04-22T09:00:11.242Z,37.95
2018-04-22T09:03:16.788Z,38.15
2018-04-22T09:05:48.603Z,38.16
2018-04-22T09:08:19.481Z,38.02
2018-04-22T09:10:53.283Z,38.10
2018-04-22T09:13:25.253Z,38.09
2018-04-22T09:15:57.259Z,38.09
2018-04-22T09:18:29.725Z,38.05
2018-04-22T09:21:01.602Z,38.25
2018-04-22T09:23:32.507Z,38.24
2018-04-22T09:26:04.517Z,38.33
2018-04-22T09:28:36.503Z,38.38
2018-04-22T09:31:08.713Z,38.35
2018-04-22T09:33:40.624Z,38.43
2018-04-22T09:36:14.751Z,38.54
2018-04-22T09:38:47.764Z,38.63
2018-04-22T09:41:20.924Z,38.64
2018-04-22T09:43:53.045Z,38.58
2018-04-22T09:46:26.589Z,38.81
2018-04-22T09:48:59.401Z,38.75
2018-04-22T09:51:31.523Z,38.88
2018-04-22T09:54:02.380Z,38.74
2018-04-22T09:56:34.537Z,38.93
2018-04-22T09:59:06.618Z,39.04
2018-04-22T10:01:39.534Z,38.89
2018-04-22T10:05:45.224Z,39.06
2018-04-22T10:08:17.275Z,38.99
2018-04-22T10:11:42.723Z,39.27
2018-04-22T10:14:15.718Z,39.41
2018-04-22T10:16:47.580Z,39.41
2018-04-22T10:19:20.506Z,39.42
2018-04-22T10:21:53.072Z,39.26
2018-04-22T10:24:26.607Z,39.44
2018-04-22T10:26:57.099Z,39.34
2018-04-22T10:29:29.544Z,39.35
2018-04-22T10:32:00.389Z,39.36
2018-04-22T10:35:36.575Z,39.52
2018-04-22T10:38:07.308Z,39.54
2018-04-22T10:40:38.383Z,39.58
2018-04-22T10:43:10.491Z,39.58
2018-04-22T10:45:42.264Z,39.68
2018-04-22T10:48:15.724Z,39.64
2018-04-22T10:50:47.586Z,39.59
2018-04-22T10:53:18.105Z,39.72
2018-04-22T10:55:50.240Z,39.63
2018-04-22T10:58:23.493Z,39.63
2018-04-22T11:00:55.270Z,39.57
2018-04-22T11:03:27.286Z,39.60
2018-04-22T11:08:21.578Z,39.87
2018-04-22T11:10:53.351Z,39.90
2018-04-22T11:13:25.535Z,39.95
2018-04-22T11:15:58.539Z,39.83
2018-04-22T11:18:32.616Z,39.92
2018-04-22T11:21:04.664Z,40.07
2018-04-22T11:23:36.546Z,40.09
2018-04-22T11:26:09.385Z,40.20
2018-04-22T11:28:41.539Z,40.08
2018-04-22T11:31:13.541Z,39.93
2018-04-22T11:33:45.639Z,39.97
2018-04-22T11:36:16.353Z,40.20
2018-04-22T11:38:49.529Z,40.34
2018-04-22T11:41:21.288Z,40.28
2018-04-22T11:43:53.252Z,40.21
2018-04-22T11:46:25.256Z,40.47
2018-04-22T11:48:57.536Z,40.62
2018-04-22T11:51:28.227Z,40.40
2018-04-22T11:54:00.628Z,40.32
2018-04-22T11:56:33.827Z,40.33
2018-04-22T11:59:05.302Z,40.41
2018-04-22T12:01:37.635Z,40.53
2018-04-22T12:06:51.724Z,40.94
2018-04-22T12:09:22.366Z,40.98
2018-04-22T12:11:54.544Z,40.89
2018-04-22T12:14:27.901Z,40.97
2018-04-22T12:17:00.372Z,40.90
2018-04-22T12:19:32.536Z,40.91
2018-04-22T12:22:04.538Z,41.04
2018-04-22T12:24:35.332Z,41.04
2018-04-22T12:27:07.539Z,41.17
2018-04-22T12:30:40.645Z,41.03
2018-04-22T12:33:12.538Z,41.09
2018-04-22T12:35:43.113Z,41.26
2018-04-22T12:38:16.748Z,41.26
2018-04-22T12:40:48.646Z,41.13
2018-04-22T12:43:20.552Z,41.11
2018-04-22T12:45:52.548Z,41.13
2018-04-22T12:48:25.543Z,41.11
2018-04-22T12:50:57.740Z,41.18
2018-04-22T12:53:28.561Z,41.40
2018-04-22T12:56:00.542Z,41.42
2018-04-22T12:58:31.282Z,41.42
2018-04-22T13:01:03.305Z,41.48
2018-04-22T13:03:37.121Z,41.50
2018-04-22T13:06:09.538Z,41.43
2018-04-22T13:08:40.363Z,41.30
2018-04-22T13:11:12.541Z,41.22
2018-04-22T13:18:38.883Z,41.53
2018-04-22T13:21:12.594Z,41.47
2018-04-22T13:23:43.385Z,41.06
2018-04-22T13:26:17.332Z,40.97
2018-04-22T13:28:48.405Z,41.03
2018-04-22T13:31:20.070Z,41.13
2018-04-22T13:35:32.896Z,41.09
2018-04-22T13:38:05.550Z,41.09
2018-04-22T13:42:31.901Z,41.05
2018-04-22T13:45:04.246Z,41.07
2018-04-22T13:47:36.545Z,41.22
2018-04-22T13:50:07.371Z,41.11
2018-04-22T13:52:39.507Z,41.35
2018-04-22T13:55:11.508Z,41.38
2018-04-22T13:57:44.514Z,41.56
2018-04-22T14:00:17.530Z,41.72
2018-04-22T14:02:49.507Z,41.70
2018-04-22T14:05:23.861Z,41.84
2018-04-22T14:07:55.652Z,42.00
2018-04-22T14:10:27.542Z,42.15
2018-04-22T14:12:59.545Z,42.19
2018-04-22T14:15:33.337Z,42.29
2018-04-22T14:18:05.545Z,42.33
2018-04-22T14:20:37.600Z,42.33
2018-04-22T14:23:08.394Z,42.43
2018-04-22T14:25:40.524Z,42.58
2018-04-22T14:28:14.603Z,42.68
2018-04-22T14:33:04.273Z,42.82
2018-04-22T14:35:36.270Z,42.98
2018-04-22T14:38:09.576Z,43.03
2018-04-22T14:40:41.530Z,43.17
2018-04-22T14:43:14.581Z,43.23
2018-04-22T14:45:51.306Z,43.27
2018-04-22T14:48:24.665Z,43.47
2018-04-22T14:50:56.687Z,43.40
2018-04-22T14:56:13.586Z,43.91
2018-04-22T14:58:44.717Z,43.79
2018-04-22T15:01:16.592Z,43.87
2018-04-22T15:03:48.358Z,44.07
2018-04-22T15:06:20.241Z,44.13
2018-04-22T15:08:52.243Z,44.13
2018-04-22T15:11:24.233Z,44.28
2018-04-22T15:13:56.487Z,44.39
2018-04-22T15:16:29.580Z,44.37
2018-04-22T15:19:01.327Z,44.41
2018-04-22T15:23:33.651Z,44.45
2018-04-22T15:26:04.332Z,44.56
2018-04-22T15:28:36.230Z,44.63
2018-04-22T15:31:08.316Z,44.74
2018-04-22T15:33:40.335Z,44.80
2018-04-22T15:36:14.243Z,44.89
2018-04-22T15:38:47.559Z,44.92
2018-04-22T15:41:19.488Z,44.95
2018-04-22T15:43:52.578Z,45.06
2018-04-22T15:46:24.511Z,45.14
2018-04-22T15:48:57.485Z,45.25
2018-04-22T15:51:29.593Z,45.30
2018-04-22T15:54:01.504Z,45.36
2018-04-22T15:56:33.492Z,45.34
2018-04-22T15:59:05.495Z,45.36
2018-04-22T16:01:38.586Z,45.44
2018-04-22T16:04:10.503Z,45.51
2018-04-22T16:06:45.405Z,45.60
2018-04-22T16:09:17.490Z,45.53
2018-04-22T16:11:49.496Z,45.65
2018-04-22T16:14:22.510Z,45.74
2018-04-22T16:16:54.578Z,45.82
2018-04-22T16:19:25.106Z,45.84
2018-04-22T16:21:58.579Z,45.77
2018-04-22T16:24:30.097Z,45.78
2018-04-22T16:27:02.256Z,45.76
2018-04-22T16:29:34.255Z,45.71
2018-04-22T16:32:07.241Z,45.71
2018-04-22T16:34:39.272Z,45.71
2018-04-22T16:37:11.288Z,45.68
2018-04-22T16:39:43.251Z,45.78
2018-04-22T16:42:16.103Z,45.75
2018-04-22T16:44:48.233Z,45.85
2018-04-22T16:47:21.633Z,45.83
2018-04-22T16:49:53.497Z,45.79
2018-04-22T16:52:25.478Z,45.85
2018-04-22T16:54:57.494Z,45.79
2018-04-22T16:57:29.243Z,45.79
2018-04-22T17:00:01.210Z,46.37
2018-04-22T17:02:33.606Z,46.68
2018-04-22T17:05:05.470Z,46.61
2018-04-22T17:07:37.249Z,47.38
2018-04-22T17:10:09.233Z,47.33
2018-04-22T17:12:41.560Z,46.83
2018-04-22T17:15:13.415Z,46.79
2018-04-22T17:17:45.242Z,46.40
2018-04-22T17:20:19.622Z,46.75
2018-04-22T17:22:53.260Z,46.67
2018-04-22T17:25:25.228Z,46.52
2018-04-22T17:27:57.107Z,46.38
2018-04-22T17:30:30.274Z,46.31
2018-04-22T17:33:02.496Z,46.10
2018-04-22T17:35:34.292Z,46.01
2018-04-22T17:38:06.236Z,45.86
2018-04-22T17:40:38.572Z,45.84
2018-04-22T17:43:09.064Z,45.75
2018-04-22T17:45:40.612Z,45.65
2018-04-22T17:48:11.479Z,45.54
2018-04-22T17:52:36.789Z,45.28
2018-04-22T17:55:08.606Z,45.17
2018-04-22T17:57:39.481Z,45.13
2018-04-22T18:00:11.298Z,45.15
2018-04-22T18:02:43.258Z,44.81
2018-04-22T18:05:15.305Z,44.72
2018-04-22T18:07:47.233Z,44.63
2018-04-22T18:10:21.270Z,44.40
2018-04-22T18:12:54.753Z,44.36
2018-04-22T18:15:26.583Z,44.27
2018-04-22T18:17:57.062Z,44.10
2018-04-22T18:20:29.272Z,43.85
2018-04-22T18:23:01.493Z,43.74
2018-04-22T18:25:34.520Z,43.62
2018-04-22T18:28:07.372Z,43.55
2018-04-22T18:30:39.308Z,43.35
2018-04-22T18:33:11.520Z,43.36
2018-04-22T18:35:43.291Z,43.15
2018-04-22T18:38:15.252Z,43.19
2018-04-22T18:45:00.574Z,43.00
2018-04-22T18:47:31.502Z,42.72
2018-04-22T18:50:03.498Z,42.48
2018-04-22T18:52:35.288Z,42.39
2018-04-22T18:55:07.263Z,42.19
2018-04-22T18:57:40.705Z,42.16
2018-04-22T19:00:14.283Z,42.13
2018-04-22T19:02:46.504Z,42.05
2018-04-22T19:05:18.559Z,41.82
2018-04-22T19:07:49.101Z,41.63
2018-04-22T19:10:22.248Z,41.30
2018-04-22T19:12:55.657Z,41.31
2018-04-22T19:15:29.919Z,41.16
2018-04-22T19:18:01.725Z,41.09
2018-04-22T19:20:33.611Z,41.07
2018-04-22T19:23:04.424Z,40.71
2018-04-22T19:25:36.616Z,40.59
2018-04-22T19:28:08.587Z,40.44
2018-04-22T19:30:39.479Z,40.16
2018-04-22T19:33:12.278Z,40.14
2018-04-22T19:35:45.627Z,39.85
2018-04-22T19:38:16.539Z,39.80
2018-04-22T19:40:47.383Z,39.66
2018-04-22T19:43:19.597Z,39.59
2018-04-22T19:45:53.771Z,39.48
2018-04-22T19:48:27.754Z,39.26
2018-04-22T19:50:59.620Z,38.88
2018-04-22T19:53:31.537Z,38.89
2018-04-22T19:56:02.277Z,38.53
2018-04-22T19:58:34.555Z,38.45
2018-04-22T20:01:05.929Z,38.15
2018-04-22T20:03:37.624Z,37.95
2018-04-22T20:06:08.500Z,37.58
2018-04-22T20:08:39.253Z,37.45
2018-04-22T20:11:10.239Z,37.26
2018-04-22T20:13:42.525Z,37.08
2018-04-22T20:16:16.690Z,36.89
2018-04-22T20:18:48.584Z,36.83
2018-04-22T20:21:19.493Z,36.70
2018-04-22T20:23:50.376Z,36.62
2018-04-22T20:26:22.544Z,36.34
2018-04-22T20:28:54.534Z,36.06
2018-04-22T20:32:26.723Z,36.03
2018-04-22T20:36:28.596Z,35.79
2018-04-22T20:39:00.660Z,35.68
2018-04-22T20:41:34.948Z,35.58
2018-04-22T20:44:09.641Z,35.49
2018-04-22T20:46:41.499Z,35.24
2018-04-22T20:49:13.491Z,35.24
2018-04-22T20:51:45.272Z,35.22
2018-04-22T20:55:49.228Z,35.00
2018-04-22T20:58:22.242Z,34.65
2018-04-22T21:00:54.366Z,34.65
2018-04-22T21:03:26.291Z,34.70
2018-04-22T21:05:58.280Z,34.72
2018-04-22T21:08:30.511Z,34.66
2018-04-22T21:11:03.269Z,34.51
2018-04-22T21:13:35.277Z,34.55
2018-04-22T21:16:08.751Z,33.70
2018-04-22T21:18:42.616Z,33.65
2018-04-22T21:21:13.498Z,33.62
2018-04-22T21:23:45.278Z,33.66
2018-04-22T21:26:17.263Z,33.68
2018-04-22T21:28:51.855Z,33.73
2018-04-22T21:31:24.390Z,33.67
2018-04-22T21:33:56.558Z,33.90
2018-04-22T21:36:30.098Z,33.77
2018-04-22T21:39:02.263Z,33.60
2018-04-22T21:46:04.540Z,33.27
2018-04-22T21:48:36.771Z,33.13
2018-04-22T21:51:09.687Z,33.00
2018-04-22T21:53:41.596Z,33.01
2018-04-22T21:56:12.132Z,32.96
2018-04-22T21:58:44.538Z,32.86
2018-04-22T22:01:15.270Z,32.58
2018-04-22T22:03:46.372Z,32.58
2018-04-22T22:06:18.545Z,32.41
2018-04-22T22:08:50.546Z,32.42
2018-04-22T22:11:21.121Z,32.31
2018-04-22T22:13:53.277Z,32.14
2018-04-22T22:16:25.271Z,32.07
2018-04-22T22:18:57.504Z,32.02
2018-04-22T22:21:29.613Z,31.96
2018-04-22T22:24:00.508Z,31.81
2018-04-22T22:26:32.504Z,31.65
2018-04-22T22:29:04.302Z,31.47
2018-04-22T22:31:36.598Z,31.35
2018-04-22T22:34:07.386Z,31.27
2018-04-22T22:36:39.505Z,31.11
2018-04-22T22:41:28.602Z,30.83
2018-04-22T22:43:59.486Z,30.75
2018-04-22T22:46:33.635Z,30.54
2018-04-22T22:49:05.602Z,30.54
2018-04-22T22:51:37.095Z,30.40
2018-04-22T22:54:09.252Z,30.53
2018-04-22T22:56:41.246Z,30.92
2018-04-22T22:59:13.649Z,30.84
2018-04-22T23:03:46.652Z,30.41
2018-04-22T23:06:18.721Z,30.99
2018-04-22T23:08:52.250Z,30.93
2018-04-22T23:11:25.623Z,30.19
2018-04-22T23:13:57.698Z,30.45
2018-04-22T23:16:30.369Z,30.19
2018-04-22T23:19:02.266Z,29.82
2018-04-22T23:21:34.246Z,29.96
2018-04-22T23:24:06.780Z,30.17
2018-04-22T23:28:54.547Z,30.00
2018-04-22T23:31:25.085Z,29.77
2018-04-22T23:33:58.434Z,29.05
2018-04-22T23:36:30.280Z,29.12
2018-04-22T23:39:02.247Z,28.97
2018-04-22T23:41:34.471Z,28.26
2018-04-22T23:44:07.792Z,27.98
2018-04-22T23:46:41.375Z,27.69
2018-04-22T23:49:13.490Z,27.31
2018-04-22T23:51:46.574Z,26.98
2018-04-22T23:54:17.400Z,26.77
2018-04-22T23:56:48.400Z,26.61
2018-04-22T23:59:21.259Z,26.44
